KRKD/RKD METAR and TAF weather

Enter ICAO airport designator
Station Type Date Time Source
KRKD METAR 2019/12/08 06:56 UTC NOAA

KRKD 080656Z AUTO 29004KT 10SM CLR M10/M13 A3044 RMK AO2 SLP309 T11001133 FZRANO


Station Type Date Time Source
KRKD Decoded METAR 2019/12/08 06:56 UTC NOAA

Rockland, Knox County Regional Airport, ME, United States (KRKD) 44-04N 069-06W
Dec 08, 2019 - 01:56 AM EST / 2019.12.08 0656 UTC
Wind: from the WNW (290 degrees) at 5 MPH (4 KT):0
Visibility: 10 mile(s):0
Sky conditions: clear
Temperature: 14.0 F (-10.0 C)
Windchill: 6 F (-14 C):1
Dew Point: 8.1 F (-13.3 C)
Relative Humidity: 76%
Pressure (altimeter): 30.44 in. Hg (1030 hPa)
ob: KRKD 080656Z AUTO 29004KT 10SM CLR M10/M13 A3044 RMK AO2 SLP309 T11001133 FZRANO
cycle: 7

Station Type Date Time Source
KRKD TAF 2019/12/08 06:22 UTC NOAA

TAF KRKD 080520Z 0806/0906 29005KT P6SM SKC
FM081600 22010KT P6SM SCT250
AMD LTD TO CLD VIS AND WIND

Example: see airport list